sensor_id;sensor_type;location;lat;lon;timestamp;P1;durP1;ratioP1;P2;durP2;ratioP2
16468;SDS011;8345;50.902;6.956;2022-08-21T00:02:16;6.80;;;5.60;;
16468;SDS011;8345;50.902;6.956;2022-08-21T00:04:44;8.10;;;6.30;;
16468;SDS011;8345;50.902;6.956;2022-08-21T00:07:11;7.97;;;6.07;;
16468;SDS011;8345;50.902;6.956;2022-08-21T00:09:38;8.00;;;6.20;;
16468;SDS011;8345;50.902;6.956;2022-08-21T00:12:07;6.97;;;5.87;;
16468;SDS011;8345;50.902;6.956;2022-08-21T00:14:34;9.40;;;6.03;;
16468;SDS011;8345;50.902;6.956;2022-08-21T00:17:02;8.93;;;6.17;;
16468;SDS011;8345;50.902;6.956;2022-08-21T00:19:30;9.20;;;6.20;;
16468;SDS011;8345;50.902;6.956;2022-08-21T00:21:57;8.53;;;6.37;;
16468;SDS011;8345;50.902;6.956;2022-08-21T00:24:25;6.63;;;6.03;;
16468;SDS011;8345;50.902;6.956;2022-08-21T00:26:52;7.50;;;6.10;;
16468;SDS011;8345;50.902;6.956;2022-08-21T00:29:21;7.50;;;6.53;;
16468;SDS011;8345;50.902;6.956;2022-08-21T00:31:48;8.13;;;6.67;;
16468;SDS011;8345;50.902;6.956;2022-08-21T00:34:15;7.97;;;5.90;;
16468;SDS011;8345;50.902;6.956;2022-08-21T00:36:43;7.70;;;6.40;;
16468;SDS011;8345;50.902;6.956;2022-08-21T00:39:10;10.00;;;6.53;;
16468;SDS011;8345;50.902;6.956;2022-08-21T00:41:38;8.93;;;5.97;;
16468;SDS011;8345;50.902;6.956;2022-08-21T00:44:06;7.17;;;5.87;;
16468;SDS011;8345;50.902;6.956;2022-08-21T00:46:35;7.93;;;6.57;;
16468;SDS011;8345;50.902;6.956;2022-08-21T00:49:03;7.00;;;6.33;;
16468;SDS011;8345;50.902;6.956;2022-08-21T00:51:32;9.83;;;6.20;;
16468;SDS011;8345;50.902;6.956;2022-08-21T00:54:00;9.13;;;6.40;;
16468;SDS011;8345;50.902;6.956;2022-08-21T00:56:28;8.77;;;6.07;;
16468;SDS011;8345;50.902;6.956;2022-08-21T00:58:55;7.87;;;6.03;;
16468;SDS011;8345;50.902;6.956;2022-08-21T01:01:23;9.33;;;6.47;;
16468;SDS011;8345;50.902;6.956;2022-08-21T01:03:51;8.37;;;6.70;;
16468;SDS011;8345;50.902;6.956;2022-08-21T01:06:19;7.47;;;6.67;;
16468;SDS011;8345;50.902;6.956;2022-08-21T01:08:47;6.90;;;6.17;;
16468;SDS011;8345;50.902;6.956;2022-08-21T01:11:14;8.00;;;6.67;;
16468;SDS011;8345;50.902;6.956;2022-08-21T01:13:41;8.33;;;6.60;;
16468;SDS011;8345;50.902;6.956;2022-08-21T01:16:12;9.30;;;7.03;;
16468;SDS011;8345;50.902;6.956;2022-08-21T01:18:40;8.63;;;7.10;;
16468;SDS011;8345;50.902;6.956;2022-08-21T01:21:10;9.30;;;7.47;;
16468;SDS011;8345;50.902;6.956;2022-08-21T01:23:38;8.67;;;6.70;;
16468;SDS011;8345;50.902;6.956;2022-08-21T01:26:07;8.87;;;7.57;;
16468;SDS011;8345;50.902;6.956;2022-08-21T01:28:36;9.43;;;7.43;;
16468;SDS011;8345;50.902;6.956;2022-08-21T01:31:05;8.37;;;7.10;;
16468;SDS011;8345;50.902;6.956;2022-08-21T01:33:33;8.83;;;7.47;;
16468;SDS011;8345;50.902;6.956;2022-08-21T01:36:01;11.73;;;7.97;;
16468;SDS011;8345;50.902;6.956;2022-08-21T01:38:29;8.20;;;7.43;;
16468;SDS011;8345;50.902;6.956;2022-08-21T01:40:57;11.13;;;8.23;;
16468;SDS011;8345;50.902;6.956;2022-08-21T01:43:24;8.27;;;7.53;;
16468;SDS011;8345;50.902;6.956;2022-08-21T01:45:52;8.73;;;7.23;;
16468;SDS011;8345;50.902;6.956;2022-08-21T01:48:19;8.87;;;8.00;;
16468;SDS011;8345;50.902;6.956;2022-08-21T01:50:46;9.73;;;7.00;;
16468;SDS011;8345;50.902;6.956;2022-08-21T01:53:13;10.50;;;7.53;;
16468;SDS011;8345;50.902;6.956;2022-08-21T01:55:42;8.63;;;7.73;;
16468;SDS011;8345;50.902;6.956;2022-08-21T01:58:09;10.40;;;8.20;;
16468;SDS011;8345;50.902;6.956;2022-08-21T02:00:37;9.00;;;7.60;;
16468;SDS011;8345;50.902;6.956;2022-08-21T02:03:04;9.03;;;7.63;;
16468;SDS011;8345;50.902;6.956;2022-08-21T02:05:31;9.03;;;7.73;;
16468;SDS011;8345;50.902;6.956;2022-08-21T02:07:58;8.10;;;7.30;;
16468;SDS011;8345;50.902;6.956;2022-08-21T02:10:28;8.83;;;7.00;;
16468;SDS011;8345;50.902;6.956;2022-08-21T02:12:57;7.97;;;7.07;;
16468;SDS011;8345;50.902;6.956;2022-08-21T02:15:25;8.30;;;7.27;;
16468;SDS011;8345;50.902;6.956;2022-08-21T02:17:55;8.03;;;6.87;;
16468;SDS011;8345;50.902;6.956;2022-08-21T02:20:24;8.67;;;6.87;;
16468;SDS011;8345;50.902;6.956;2022-08-21T02:22:51;8.67;;;7.77;;
16468;SDS011;8345;50.902;6.956;2022-08-21T02:25:19;11.10;;;9.73;;
16468;SDS011;8345;50.902;6.956;2022-08-21T02:27:47;11.33;;;10.17;;
16468;SDS011;8345;50.902;6.956;2022-08-21T02:30:17;10.90;;;9.73;;
16468;SDS011;8345;50.902;6.956;2022-08-21T02:32:46;10.47;;;9.47;;
16468;SDS011;8345;50.902;6.956;2022-08-21T02:35:13;12.47;;;10.13;;
16468;SDS011;8345;50.902;6.956;2022-08-21T02:37:44;11.23;;;9.07;;
16468;SDS011;8345;50.902;6.956;2022-08-21T02:40:12;9.93;;;8.13;;
16468;SDS011;8345;50.902;6.956;2022-08-21T02:42:39;10.57;;;9.00;;
16468;SDS011;8345;50.902;6.956;2022-08-21T02:45:06;10.10;;;9.10;;
16468;SDS011;8345;50.902;6.956;2022-08-21T02:47:35;10.87;;;9.57;;
16468;SDS011;8345;50.902;6.956;2022-08-21T02:50:03;12.30;;;10.07;;
16468;SDS011;8345;50.902;6.956;2022-08-21T02:52:30;10.70;;;9.60;;
16468;SDS011;8345;50.902;6.956;2022-08-21T02:54:58;12.13;;;10.70;;
16468;SDS011;8345;50.902;6.956;2022-08-21T02:57:26;10.90;;;9.80;;
16468;SDS011;8345;50.902;6.956;2022-08-21T02:59:53;12.50;;;10.03;;
16468;SDS011;8345;50.902;6.956;2022-08-21T03:02:20;12.73;;;10.10;;
16468;SDS011;8345;50.902;6.956;2022-08-21T03:04:49;10.60;;;9.50;;
16468;SDS011;8345;50.902;6.956;2022-08-21T03:07:16;10.83;;;9.83;;
16468;SDS011;8345;50.902;6.956;2022-08-21T03:09:43;10.50;;;9.17;;
16468;SDS011;8345;50.902;6.956;2022-08-21T03:12:10;10.83;;;9.63;;
16468;SDS011;8345;50.902;6.956;2022-08-21T03:14:37;11.77;;;10.00;;
16468;SDS011;8345;50.902;6.956;2022-08-21T03:17:05;14.27;;;10.07;;
16468;SDS011;8345;50.902;6.956;2022-08-21T03:19:32;11.70;;;9.03;;
16468;SDS011;8345;50.902;6.956;2022-08-21T03:22:01;10.53;;;9.47;;
16468;SDS011;8345;50.902;6.956;2022-08-21T03:24:28;10.10;;;9.03;;
16468;SDS011;8345;50.902;6.956;2022-08-21T03:26:55;10.57;;;8.67;;
16468;SDS011;8345;50.902;6.956;2022-08-21T03:29:22;9.20;;;8.30;;
16468;SDS011;8345;50.902;6.956;2022-08-21T03:31:50;8.60;;;7.77;;
16468;SDS011;8345;50.902;6.956;2022-08-21T03:34:19;11.00;;;8.70;;
16468;SDS011;8345;50.902;6.956;2022-08-21T03:36:46;10.90;;;8.60;;
16468;SDS011;8345;50.902;6.956;2022-08-21T03:39:15;9.20;;;8.27;;
16468;SDS011;8345;50.902;6.956;2022-08-21T03:41:42;9.47;;;8.37;;
16468;SDS011;8345;50.902;6.956;2022-08-21T03:44:09;11.33;;;8.17;;
16468;SDS011;8345;50.902;6.956;2022-08-21T03:46:36;8.93;;;8.07;;
16468;SDS011;8345;50.902;6.956;2022-08-21T03:49:05;9.47;;;7.67;;
16468;SDS011;8345;50.902;6.956;2022-08-21T03:51:32;8.10;;;7.30;;
16468;SDS011;8345;50.902;6.956;2022-08-21T03:54:00;9.03;;;8.03;;
16468;SDS011;8345;50.902;6.956;2022-08-21T03:56:29;10.00;;;8.83;;
16468;SDS011;8345;50.902;6.956;2022-08-21T03:58:56;8.77;;;7.80;;
16468;SDS011;8345;50.902;6.956;2022-08-21T04:01:24;9.97;;;8.00;;
16468;SDS011;8345;50.902;6.956;2022-08-21T04:03:51;9.17;;;7.93;;
16468;SDS011;8345;50.902;6.956;2022-08-21T04:06:18;11.90;;;7.73;;
16468;SDS011;8345;50.902;6.956;2022-08-21T04:08:45;9.50;;;7.77;;
16468;SDS011;8345;50.902;6.956;2022-08-21T04:11:13;9.03;;;7.57;;
16468;SDS011;8345;50.902;6.956;2022-08-21T04:13:41;8.57;;;7.67;;
16468;SDS011;8345;50.902;6.956;2022-08-21T04:16:09;10.43;;;7.90;;
16468;SDS011;8345;50.902;6.956;2022-08-21T04:18:36;9.57;;;7.27;;
16468;SDS011;8345;50.902;6.956;2022-08-21T04:21:03;9.17;;;7.07;;
16468;SDS011;8345;50.902;6.956;2022-08-21T04:23:31;7.70;;;7.00;;
16468;SDS011;8345;50.902;6.956;2022-08-21T04:25:59;7.87;;;7.07;;
16468;SDS011;8345;50.902;6.956;2022-08-21T04:28:26;8.37;;;7.57;;
16468;SDS011;8345;50.902;6.956;2022-08-21T04:30:55;11.90;;;7.20;;
16468;SDS011;8345;50.902;6.956;2022-08-21T04:33:22;7.63;;;6.93;;
16468;SDS011;8345;50.902;6.956;2022-08-21T04:35:50;7.87;;;7.07;;
16468;SDS011;8345;50.902;6.956;2022-08-21T04:38:17;8.87;;;7.97;;
16468;SDS011;8345;50.902;6.956;2022-08-21T04:40:45;8.57;;;7.77;;
16468;SDS011;8345;50.902;6.956;2022-08-21T04:43:13;8.47;;;7.57;;
16468;SDS011;8345;50.902;6.956;2022-08-21T04:45:43;8.13;;;7.27;;
16468;SDS011;8345;50.902;6.956;2022-08-21T04:48:13;9.47;;;7.47;;
16468;SDS011;8345;50.902;6.956;2022-08-21T04:50:43;7.83;;;7.00;;
16468;SDS011;8345;50.902;6.956;2022-08-21T04:53:13;7.93;;;7.17;;
16468;SDS011;8345;50.902;6.956;2022-08-21T04:55:41;8.47;;;7.17;;
16468;SDS011;8345;50.902;6.956;2022-08-21T04:58:09;9.40;;;7.03;;
16468;SDS011;8345;50.902;6.956;2022-08-21T05:00:38;7.60;;;6.83;;
16468;SDS011;8345;50.902;6.956;2022-08-21T05:03:06;8.23;;;6.80;;
16468;SDS011;8345;50.902;6.956;2022-08-21T05:05:35;7.80;;;6.93;;
16468;SDS011;8345;50.902;6.956;2022-08-21T05:08:03;7.63;;;6.93;;
16468;SDS011;8345;50.902;6.956;2022-08-21T05:10:31;10.30;;;7.23;;
16468;SDS011;8345;50.902;6.956;2022-08-21T05:12:58;7.93;;;6.93;;
16468;SDS011;8345;50.902;6.956;2022-08-21T05:15:26;9.90;;;7.07;;
16468;SDS011;8345;50.902;6.956;2022-08-21T05:17:55;7.63;;;6.87;;
16468;SDS011;8345;50.902;6.956;2022-08-21T05:20:22;9.23;;;6.90;;
16468;SDS011;8345;50.902;6.956;2022-08-21T05:22:51;9.00;;;7.00;;
16468;SDS011;8345;50.902;6.956;2022-08-21T05:25:18;7.80;;;7.03;;
16468;SDS011;8345;50.902;6.956;2022-08-21T05:27:46;8.23;;;6.70;;
16468;SDS011;8345;50.902;6.956;2022-08-21T05:30:13;9.27;;;7.70;;
16468;SDS011;8345;50.902;6.956;2022-08-21T05:32:40;7.77;;;7.03;;
16468;SDS011;8345;50.902;6.956;2022-08-21T05:35:07;8.37;;;7.10;;
16468;SDS011;8345;50.902;6.956;2022-08-21T05:37:34;8.57;;;7.33;;
16468;SDS011;8345;50.902;6.956;2022-08-21T05:40:04;9.47;;;7.10;;
16468;SDS011;8345;50.902;6.956;2022-08-21T05:42:32;8.27;;;7.23;;
16468;SDS011;8345;50.902;6.956;2022-08-21T05:44:59;9.33;;;6.80;;
16468;SDS011;8345;50.902;6.956;2022-08-21T05:47:26;8.87;;;7.17;;
16468;SDS011;8345;50.902;6.956;2022-08-21T05:49:53;8.73;;;7.07;;
16468;SDS011;8345;50.902;6.956;2022-08-21T05:52:21;9.43;;;7.03;;
16468;SDS011;8345;50.902;6.956;2022-08-21T05:54:48;7.00;;;6.40;;
16468;SDS011;8345;50.902;6.956;2022-08-21T05:57:16;7.90;;;6.87;;
16468;SDS011;8345;50.902;6.956;2022-08-21T05:59:44;7.60;;;6.90;;
16468;SDS011;8345;50.902;6.956;2022-08-21T06:02:11;8.73;;;7.83;;
16468;SDS011;8345;50.902;6.956;2022-08-21T06:04:38;8.60;;;7.70;;
16468;SDS011;8345;50.902;6.956;2022-08-21T06:07:06;11.20;;;8.27;;
16468;SDS011;8345;50.902;6.956;2022-08-21T06:09:33;9.63;;;7.97;;
16468;SDS011;8345;50.902;6.956;2022-08-21T06:12:03;9.27;;;8.27;;
16468;SDS011;8345;50.902;6.956;2022-08-21T06:14:31;8.00;;;7.20;;
16468;SDS011;8345;50.902;6.956;2022-08-21T06:17:01;10.10;;;7.43;;
16468;SDS011;8345;50.902;6.956;2022-08-21T06:19:28;8.13;;;6.50;;
16468;SDS011;8345;50.902;6.956;2022-08-21T06:21:56;7.07;;;6.33;;
16468;SDS011;8345;50.902;6.956;2022-08-21T06:24:23;8.10;;;6.70;;
16468;SDS011;8345;50.902;6.956;2022-08-21T06:26:50;7.47;;;6.77;;
16468;SDS011;8345;50.902;6.956;2022-08-21T06:29:18;7.37;;;6.40;;
16468;SDS011;8345;50.902;6.956;2022-08-21T06:31:47;8.07;;;6.63;;
16468;SDS011;8345;50.902;6.956;2022-08-21T06:34:15;7.37;;;6.67;;
16468;SDS011;8345;50.902;6.956;2022-08-21T06:36:42;7.03;;;6.33;;
16468;SDS011;8345;50.902;6.956;2022-08-21T06:39:09;8.43;;;6.43;;
16468;SDS011;8345;50.902;6.956;2022-08-21T06:41:38;9.37;;;6.10;;
16468;SDS011;8345;50.902;6.956;2022-08-21T06:44:05;7.83;;;5.93;;
16468;SDS011;8345;50.902;6.956;2022-08-21T06:46:32;7.40;;;6.17;;
16468;SDS011;8345;50.902;6.956;2022-08-21T06:49:03;9.40;;;6.67;;
16468;SDS011;8345;50.902;6.956;2022-08-21T06:51:30;7.60;;;6.83;;
16468;SDS011;8345;50.902;6.956;2022-08-21T06:53:58;8.10;;;6.20;;
16468;SDS011;8345;50.902;6.956;2022-08-21T06:56:25;8.97;;;6.03;;
16468;SDS011;8345;50.902;6.956;2022-08-21T06:58:52;7.70;;;5.17;;
16468;SDS011;8345;50.902;6.956;2022-08-21T07:01:19;8.27;;;5.87;;
16468;SDS011;8345;50.902;6.956;2022-08-21T07:03:47;7.93;;;5.57;;
16468;SDS011;8345;50.902;6.956;2022-08-21T07:06:16;6.43;;;5.10;;
16468;SDS011;8345;50.902;6.956;2022-08-21T07:08:43;5.83;;;4.80;;
16468;SDS011;8345;50.902;6.956;2022-08-21T07:11:12;8.10;;;5.03;;
16468;SDS011;8345;50.902;6.956;2022-08-21T07:13:41;8.10;;;5.30;;
16468;SDS011;8345;50.902;6.956;2022-08-21T07:16:09;6.10;;;4.43;;
16468;SDS011;8345;50.902;6.956;2022-08-21T07:18:36;6.00;;;3.77;;
16468;SDS011;8345;50.902;6.956;2022-08-21T07:21:03;7.27;;;4.63;;
16468;SDS011;8345;50.902;6.956;2022-08-21T07:23:37;4.83;;;4.17;;
16468;SDS011;8345;50.902;6.956;2022-08-21T07:26:05;7.83;;;4.30;;
16468;SDS011;8345;50.902;6.956;2022-08-21T07:28:33;6.07;;;4.23;;
16468;SDS011;8345;50.902;6.956;2022-08-21T07:31:00;8.00;;;4.47;;
16468;SDS011;8345;50.902;6.956;2022-08-21T07:33:28;6.67;;;4.37;;
16468;SDS011;8345;50.902;6.956;2022-08-21T07:35:56;8.03;;;3.97;;
16468;SDS011;8345;50.902;6.956;2022-08-21T07:38:23;3.63;;;2.90;;
16468;SDS011;8345;50.902;6.956;2022-08-21T07:40:54;3.53;;;2.77;;
16468;SDS011;8345;50.902;6.956;2022-08-21T07:43:23;6.13;;;2.63;;
16468;SDS011;8345;50.902;6.956;2022-08-21T07:45:51;4.57;;;2.60;;
16468;SDS011;8345;50.902;6.956;2022-08-21T07:48:19;5.77;;;3.27;;
16468;SDS011;8345;50.902;6.956;2022-08-21T07:50:47;4.60;;;2.70;;
16468;SDS011;8345;50.902;6.956;2022-08-21T07:53:14;7.90;;;3.07;;
16468;SDS011;8345;50.902;6.956;2022-08-21T07:55:42;5.07;;;3.07;;
16468;SDS011;8345;50.902;6.956;2022-08-21T07:58:10;3.77;;;2.73;;
16468;SDS011;8345;50.902;6.956;2022-08-21T08:00:38;7.17;;;3.03;;
16468;SDS011;8345;50.902;6.956;2022-08-21T08:03:06;4.83;;;2.50;;
16468;SDS011;8345;50.902;6.956;2022-08-21T08:05:33;5.88;;;2.40;;
16468;SDS011;8345;50.902;6.956;2022-08-21T08:08:02;7.15;;;2.03;;
16468;SDS011;8345;50.902;6.956;2022-08-21T08:10:29;5.07;;;2.20;;
16468;SDS011;8345;50.902;6.956;2022-08-21T08:12:56;6.40;;;2.60;;
16468;SDS011;8345;50.902;6.956;2022-08-21T08:15:25;6.27;;;2.53;;
16468;SDS011;8345;50.902;6.956;2022-08-21T08:17:53;4.23;;;2.20;;
16468;SDS011;8345;50.902;6.956;2022-08-21T08:20:20;3.90;;;2.30;;
16468;SDS011;8345;50.902;6.956;2022-08-21T08:22:48;4.83;;;2.30;;
16468;SDS011;8345;50.902;6.956;2022-08-21T08:25:16;5.53;;;2.47;;
16468;SDS011;8345;50.902;6.956;2022-08-21T08:27:43;7.20;;;2.17;;
16468;SDS011;8345;50.902;6.956;2022-08-21T08:30:11;5.13;;;2.27;;
16468;SDS011;8345;50.902;6.956;2022-08-21T08:32:40;4.97;;;2.70;;
16468;SDS011;8345;50.902;6.956;2022-08-21T08:35:08;6.10;;;2.58;;
16468;SDS011;8345;50.902;6.956;2022-08-21T08:37:36;4.15;;;2.30;;
16468;SDS011;8345;50.902;6.956;2022-08-21T08:40:05;4.85;;;2.33;;
16468;SDS011;8345;50.902;6.956;2022-08-21T08:42:33;3.83;;;2.00;;
16468;SDS011;8345;50.902;6.956;2022-08-21T08:45:03;3.80;;;2.57;;
16468;SDS011;8345;50.902;6.956;2022-08-21T08:47:31;5.23;;;2.33;;
16468;SDS011;8345;50.902;6.956;2022-08-21T08:50:03;5.13;;;2.20;;
16468;SDS011;8345;50.902;6.956;2022-08-21T08:52:31;6.97;;;2.47;;
16468;SDS011;8345;50.902;6.956;2022-08-21T08:55:00;4.20;;;2.20;;
16468;SDS011;8345;50.902;6.956;2022-08-21T08:57:28;4.80;;;1.97;;
16468;SDS011;8345;50.902;6.956;2022-08-21T08:59:56;6.07;;;2.70;;
16468;SDS011;8345;50.902;6.956;2022-08-21T09:02:25;5.40;;;2.22;;
16468;SDS011;8345;50.902;6.956;2022-08-21T09:04:53;4.55;;;2.22;;
16468;SDS011;8345;50.902;6.956;2022-08-21T09:07:25;6.22;;;2.47;;
16468;SDS011;8345;50.902;6.956;2022-08-21T09:09:58;3.47;;;2.03;;
16468;SDS011;8345;50.902;6.956;2022-08-21T09:12:31;5.30;;;2.30;;
16468;SDS011;8345;50.902;6.956;2022-08-21T09:15:02;6.57;;;2.33;;
16468;SDS011;8345;50.902;6.956;2022-08-21T09:17:44;3.92;;;2.20;;
16468;SDS011;8345;50.902;6.956;2022-08-21T09:20:21;5.35;;;2.40;;
16468;SDS011;8345;50.902;6.956;2022-08-21T09:22:56;4.50;;;2.45;;
16468;SDS011;8345;50.902;6.956;2022-08-21T09:25:25;3.25;;;1.92;;
16468;SDS011;8345;50.902;6.956;2022-08-21T09:27:53;6.68;;;2.08;;
16468;SDS011;8345;50.902;6.956;2022-08-21T09:30:23;3.87;;;2.33;;
16468;SDS011;8345;50.902;6.956;2022-08-21T09:32:51;6.07;;;2.25;;
16468;SDS011;8345;50.902;6.956;2022-08-21T09:35:19;4.83;;;2.47;;
16468;SDS011;8345;50.902;6.956;2022-08-21T09:37:49;6.10;;;2.70;;
16468;SDS011;8345;50.902;6.956;2022-08-21T09:40:21;5.57;;;2.65;;
16468;SDS011;8345;50.902;6.956;2022-08-21T09:42:54;5.10;;;2.27;;
16468;SDS011;8345;50.902;6.956;2022-08-21T09:45:22;5.23;;;2.20;;
16468;SDS011;8345;50.902;6.956;2022-08-21T09:47:49;3.93;;;1.87;;
16468;SDS011;8345;50.902;6.956;2022-08-21T09:50:19;3.37;;;2.20;;
16468;SDS011;8345;50.902;6.956;2022-08-21T09:52:48;4.00;;;2.40;;
16468;SDS011;8345;50.902;6.956;2022-08-21T09:55:16;4.97;;;2.50;;
16468;SDS011;8345;50.902;6.956;2022-08-21T09:58:00;5.70;;;2.40;;
16468;SDS011;8345;50.902;6.956;2022-08-21T10:00:29;7.73;;;2.20;;
16468;SDS011;8345;50.902;6.956;2022-08-21T10:03:07;7.37;;;2.20;;
16468;SDS011;8345;50.902;6.956;2022-08-21T10:05:34;6.40;;;2.27;;
16468;SDS011;8345;50.902;6.956;2022-08-21T10:08:02;6.10;;;2.50;;
16468;SDS011;8345;50.902;6.956;2022-08-21T10:10:31;5.03;;;2.40;;
16468;SDS011;8345;50.902;6.956;2022-08-21T10:12:59;5.60;;;2.23;;
16468;SDS011;8345;50.902;6.956;2022-08-21T10:15:32;4.67;;;2.37;;
16468;SDS011;8345;50.902;6.956;2022-08-21T10:18:04;5.57;;;2.40;;
16468;SDS011;8345;50.902;6.956;2022-08-21T10:20:36;4.83;;;2.20;;
16468;SDS011;8345;50.902;6.956;2022-08-21T10:23:07;5.30;;;2.17;;
16468;SDS011;8345;50.902;6.956;2022-08-21T10:25:37;4.50;;;2.10;;
16468;SDS011;8345;50.902;6.956;2022-08-21T10:28:09;4.07;;;2.20;;
16468;SDS011;8345;50.902;6.956;2022-08-21T10:30:41;4.75;;;2.20;;
16468;SDS011;8345;50.902;6.956;2022-08-21T10:35:59;6.13;;;2.30;;
16468;SDS011;8345;50.902;6.956;2022-08-21T10:38:37;4.90;;;2.13;;
16468;SDS011;8345;50.902;6.956;2022-08-21T10:41:10;5.72;;;2.33;;
16468;SDS011;8345;50.902;6.956;2022-08-21T10:43:45;5.60;;;2.50;;
16468;SDS011;8345;50.902;6.956;2022-08-21T10:46:21;5.93;;;1.98;;
16468;SDS011;8345;50.902;6.956;2022-08-21T10:48:53;4.13;;;1.70;;
16468;SDS011;8345;50.902;6.956;2022-08-21T10:51:24;5.72;;;2.35;;
16468;SDS011;8345;50.902;6.956;2022-08-21T10:53:55;5.68;;;2.22;;
16468;SDS011;8345;50.902;6.956;2022-08-21T10:56:25;3.58;;;1.83;;
16468;SDS011;8345;50.902;6.956;2022-08-21T10:58:58;4.05;;;2.10;;
16468;SDS011;8345;50.902;6.956;2022-08-21T11:01:31;4.05;;;2.00;;
16468;SDS011;8345;50.902;6.956;2022-08-21T11:04:04;4.47;;;1.92;;
16468;SDS011;8345;50.902;6.956;2022-08-21T11:06:40;4.60;;;2.10;;
16468;SDS011;8345;50.902;6.956;2022-08-21T11:09:11;5.10;;;1.92;;
16468;SDS011;8345;50.902;6.956;2022-08-21T11:11:39;4.45;;;2.15;;
16468;SDS011;8345;50.902;6.956;2022-08-21T11:14:09;3.42;;;1.60;;
16468;SDS011;8345;50.902;6.956;2022-08-21T11:16:40;3.65;;;1.95;;
16468;SDS011;8345;50.902;6.956;2022-08-21T11:19:09;5.18;;;2.20;;
16468;SDS011;8345;50.902;6.956;2022-08-21T11:21:39;5.70;;;2.00;;
16468;SDS011;8345;50.902;6.956;2022-08-21T11:24:21;6.90;;;2.25;;
16468;SDS011;8345;50.902;6.956;2022-08-21T11:26:52;3.28;;;1.80;;
16468;SDS011;8345;50.902;6.956;2022-08-21T11:29:23;4.53;;;2.00;;
16468;SDS011;8345;50.902;6.956;2022-08-21T11:31:55;4.00;;;1.70;;
16468;SDS011;8345;50.902;6.956;2022-08-21T11:34:29;3.72;;;1.98;;
16468;SDS011;8345;50.902;6.956;2022-08-21T11:37:01;5.28;;;1.90;;
16468;SDS011;8345;50.902;6.956;2022-08-21T11:39:35;5.05;;;2.00;;
16468;SDS011;8345;50.902;6.956;2022-08-21T11:42:06;4.35;;;2.13;;
16468;SDS011;8345;50.902;6.956;2022-08-21T11:44:39;3.92;;;1.80;;
16468;SDS011;8345;50.902;6.956;2022-08-21T11:47:15;3.90;;;1.42;;
16468;SDS011;8345;50.902;6.956;2022-08-21T11:49:47;2.42;;;1.50;;
16468;SDS011;8345;50.902;6.956;2022-08-21T11:52:17;2.33;;;1.45;;
16468;SDS011;8345;50.902;6.956;2022-08-21T11:54:49;3.33;;;1.65;;
16468;SDS011;8345;50.902;6.956;2022-08-21T11:57:21;4.18;;;1.70;;
16468;SDS011;8345;50.902;6.956;2022-08-21T11:59:53;3.75;;;1.80;;
16468;SDS011;8345;50.902;6.956;2022-08-21T12:02:24;3.88;;;2.28;;
16468;SDS011;8345;50.902;6.956;2022-08-21T12:04:54;4.40;;;1.70;;
16468;SDS011;8345;50.902;6.956;2022-08-21T12:07:31;3.45;;;1.60;;
16468;SDS011;8345;50.902;6.956;2022-08-21T12:09:59;4.50;;;1.90;;
16468;SDS011;8345;50.902;6.956;2022-08-21T12:12:27;2.72;;;1.92;;
16468;SDS011;8345;50.902;6.956;2022-08-21T12:17:39;2.80;;;1.60;;
16468;SDS011;8345;50.902;6.956;2022-08-21T12:20:16;4.65;;;2.00;;
16468;SDS011;8345;50.902;6.956;2022-08-21T12:22:47;4.72;;;1.60;;
16468;SDS011;8345;50.902;6.956;2022-08-21T12:25:17;3.85;;;1.60;;
16468;SDS011;8345;50.902;6.956;2022-08-21T12:27:45;3.17;;;1.65;;
16468;SDS011;8345;50.902;6.956;2022-08-21T12:30:21;3.47;;;1.88;;
16468;SDS011;8345;50.902;6.956;2022-08-21T12:32:56;3.88;;;1.65;;
16468;SDS011;8345;50.902;6.956;2022-08-21T12:35:24;4.25;;;2.30;;
16468;SDS011;8345;50.902;6.956;2022-08-21T12:37:58;4.85;;;1.75;;
16468;SDS011;8345;50.902;6.956;2022-08-21T12:40:28;3.75;;;1.95;;
16468;SDS011;8345;50.902;6.956;2022-08-21T12:42:57;4.20;;;1.90;;
16468;SDS011;8345;50.902;6.956;2022-08-21T12:45:27;3.65;;;2.08;;
16468;SDS011;8345;50.902;6.956;2022-08-21T12:47:58;2.53;;;1.70;;
16468;SDS011;8345;50.902;6.956;2022-08-21T12:50:29;4.55;;;2.15;;
16468;SDS011;8345;50.902;6.956;2022-08-21T12:53:05;4.65;;;1.85;;
16468;SDS011;8345;50.902;6.956;2022-08-21T12:55:34;2.33;;;1.60;;
16468;SDS011;8345;50.902;6.956;2022-08-21T12:58:02;2.85;;;1.98;;
16468;SDS011;8345;50.902;6.956;2022-08-21T13:00:32;3.13;;;1.73;;
16468;SDS011;8345;50.902;6.956;2022-08-21T13:03:01;3.97;;;2.17;;
16468;SDS011;8345;50.902;6.956;2022-08-21T13:05:29;3.58;;;1.92;;
16468;SDS011;8345;50.902;6.956;2022-08-21T13:07:57;2.75;;;1.60;;
16468;SDS011;8345;50.902;6.956;2022-08-21T13:10:26;2.65;;;1.42;;
16468;SDS011;8345;50.902;6.956;2022-08-21T13:12:54;6.20;;;3.03;;
16468;SDS011;8345;50.902;6.956;2022-08-21T13:15:26;4.63;;;1.90;;
16468;SDS011;8345;50.902;6.956;2022-08-21T13:17:53;3.53;;;2.00;;
16468;SDS011;8345;50.902;6.956;2022-08-21T13:20:29;4.20;;;1.80;;
16468;SDS011;8345;50.902;6.956;2022-08-21T13:22:56;4.70;;;2.30;;
16468;SDS011;8345;50.902;6.956;2022-08-21T13:25:25;5.03;;;1.80;;
16468;SDS011;8345;50.902;6.956;2022-08-21T13:27:57;3.55;;;1.63;;
16468;SDS011;8345;50.902;6.956;2022-08-21T13:30:25;6.82;;;2.05;;
16468;SDS011;8345;50.902;6.956;2022-08-21T13:32:55;3.53;;;1.90;;
16468;SDS011;8345;50.902;6.956;2022-08-21T13:35:24;4.90;;;1.98;;
16468;SDS011;8345;50.902;6.956;2022-08-21T13:37:53;4.95;;;1.67;;
16468;SDS011;8345;50.902;6.956;2022-08-21T13:40:24;14.18;;;2.90;;
16468;SDS011;8345;50.902;6.956;2022-08-21T13:42:51;2.50;;;1.75;;
16468;SDS011;8345;50.902;6.956;2022-08-21T13:45:22;3.35;;;1.73;;
16468;SDS011;8345;50.902;6.956;2022-08-21T13:47:50;4.40;;;1.70;;
16468;SDS011;8345;50.902;6.956;2022-08-21T13:50:18;4.28;;;1.83;;
16468;SDS011;8345;50.902;6.956;2022-08-21T13:52:53;3.67;;;2.00;;
16468;SDS011;8345;50.902;6.956;2022-08-21T13:55:23;4.43;;;2.17;;
16468;SDS011;8345;50.902;6.956;2022-08-21T13:57:58;4.22;;;2.08;;
16468;SDS011;8345;50.902;6.956;2022-08-21T14:00:27;5.38;;;2.45;;
16468;SDS011;8345;50.902;6.956;2022-08-21T14:03:00;4.38;;;2.10;;
16468;SDS011;8345;50.902;6.956;2022-08-21T14:05:29;4.90;;;2.33;;
16468;SDS011;8345;50.902;6.956;2022-08-21T14:07:58;3.92;;;1.90;;
16468;SDS011;8345;50.902;6.956;2022-08-21T14:10:29;6.63;;;2.20;;
16468;SDS011;8345;50.902;6.956;2022-08-21T14:12:58;3.50;;;1.70;;
16468;SDS011;8345;50.902;6.956;2022-08-21T14:15:26;3.47;;;2.15;;
16468;SDS011;8345;50.902;6.956;2022-08-21T14:17:54;3.67;;;1.73;;
16468;SDS011;8345;50.902;6.956;2022-08-21T14:20:27;5.28;;;2.00;;
16468;SDS011;8345;50.902;6.956;2022-08-21T14:22:55;5.28;;;1.80;;
16468;SDS011;8345;50.902;6.956;2022-08-21T14:25:28;4.93;;;1.60;;
16468;SDS011;8345;50.902;6.956;2022-08-21T14:27:58;2.78;;;1.65;;
16468;SDS011;8345;50.902;6.956;2022-08-21T14:30:29;2.45;;;1.90;;
16468;SDS011;8345;50.902;6.956;2022-08-21T14:32:58;6.15;;;1.75;;
16468;SDS011;8345;50.902;6.956;2022-08-21T14:35:25;3.55;;;1.77;;
16468;SDS011;8345;50.902;6.956;2022-08-21T14:37:52;3.17;;;1.60;;
16468;SDS011;8345;50.902;6.956;2022-08-21T14:40:21;2.97;;;1.67;;
16468;SDS011;8345;50.902;6.956;2022-08-21T14:42:49;2.80;;;1.63;;
16468;SDS011;8345;50.902;6.956;2022-08-21T14:45:19;3.22;;;1.40;;
16468;SDS011;8345;50.902;6.956;2022-08-21T14:47:47;3.22;;;1.60;;
16468;SDS011;8345;50.902;6.956;2022-08-21T14:50:14;4.00;;;1.73;;
16468;SDS011;8345;50.902;6.956;2022-08-21T14:52:42;3.75;;;1.80;;
16468;SDS011;8345;50.902;6.956;2022-08-21T14:55:11;4.75;;;1.70;;
16468;SDS011;8345;50.902;6.956;2022-08-21T14:57:39;3.67;;;1.92;;
16468;SDS011;8345;50.902;6.956;2022-08-21T15:00:08;4.95;;;1.90;;
16468;SDS011;8345;50.902;6.956;2022-08-21T15:02:37;3.20;;;1.73;;
16468;SDS011;8345;50.902;6.956;2022-08-21T15:05:04;2.60;;;1.58;;
16468;SDS011;8345;50.902;6.956;2022-08-21T15:07:32;4.60;;;1.67;;
16468;SDS011;8345;50.902;6.956;2022-08-21T15:09:59;4.57;;;1.70;;
16468;SDS011;8345;50.902;6.956;2022-08-21T15:12:26;3.05;;;1.70;;
16468;SDS011;8345;50.902;6.956;2022-08-21T15:14:53;2.53;;;1.70;;
16468;SDS011;8345;50.902;6.956;2022-08-21T15:17:21;2.75;;;1.65;;